Time;durP1;ratioP1;P1;durP2;ratioP2;P2;SDS_P1;SDS_P2;PMS_P1;PMS_P2;Temp;Humidity;BMP_temperature;BMP_pressure;BME280_temperature;BME280_humidity;BME280_pressure;Samples;Min_cycle;Max_cycle;Signal;HPM_P1;HPM_P2
2022/03/06 00:01:05;;;;;;;8.45;7.38;;;5.50;77.40;;;;;;5102831;28;20239;-65
2022/03/06 00:03:32;;;;;;;8.27;7.50;;;5.50;77.30;;;;;;5105560;28;20243;-65
2022/03/06 00:05:59;;;;;;;8.73;7.82;;;5.40;77.30;;;;;;5102936;28;20589;-65
2022/03/06 00:08:26;;;;;;;8.60;7.68;;;5.50;77.50;;;;;;5098185;28;20547;-65
2022/03/06 00:10:56;;;;;;;7.40;6.70;;;5.50;77.20;;;;;;5112843;28;20219;-65
2022/03/06 00:13:23;;;;;;;8.23;7.30;;;5.40;76.90;;;;;;5098802;28;20311;-65
2022/03/06 00:15:50;;;;;;;8.02;7.32;;;5.40;76.70;;;;;;5098212;28;20678;-65
2022/03/06 00:18:17;;;;;;;9.10;7.40;;;5.40;76.70;;;;;;5101635;28;20219;-65
2022/03/06 00:20:47;;;;;;;10.00;7.78;;;5.40;76.80;;;;;;5102462;28;20223;-65
2022/03/06 00:23:14;;;;;;;9.25;7.60;;;5.40;76.80;;;;;;5111543;28;20233;-65
2022/03/06 00:25:40;;;;;;;8.40;7.55;;;5.40;76.70;;;;;;5112348;28;20234;-65
2022/03/06 00:28:09;;;;;;;11.52;8.13;;;5.40;76.70;;;;;;5098912;28;20218;-65
2022/03/06 00:30:36;;;;;;;8.85;7.95;;;5.40;76.70;;;;;;5099702;28;20674;-65
2022/03/06 00:33:04;;;;;;;11.48;9.15;;;5.40;76.80;;;;;;5101344;28;20245;-65
2022/03/06 00:35:31;;;;;;;9.00;8.13;;;5.40;76.90;;;;;;5102899;28;20226;-63
2022/03/06 00:37:59;;;;;;;11.65;8.65;;;5.40;77.20;;;;;;5112534;28;20302;-64
2022/03/06 00:40:26;;;;;;;9.10;8.20;;;5.40;77.30;;;;;;5102379;28;20257;-64
2022/03/06 00:42:53;;;;;;;8.70;7.80;;;5.40;77.10;;;;;;5110317;27;20223;-65
2022/03/06 00:45:22;;;;;;;9.27;8.40;;;5.40;77.30;;;;;;5116447;28;20310;-64
2022/03/06 00:47:49;;;;;;;8.48;7.68;;;5.40;77.20;;;;;;5103557;28;20943;-64
2022/03/06 00:50:15;;;;;;;8.73;7.93;;;5.40;77.00;;;;;;5109914;27;20233;-65
2022/03/06 00:52:42;;;;;;;11.30;8.00;;;5.40;77.10;;;;;;5115852;27;20230;-65
2022/03/06 00:55:10;;;;;;;9.02;8.00;;;5.30;77.10;;;;;;5116165;28;20225;-65
2022/03/06 00:57:37;;;;;;;9.55;8.68;;;5.40;76.50;;;;;;5105949;27;20227;-64
2022/03/06 01:00:06;;;;;;;11.43;8.32;;;5.40;76.10;;;;;;5114949;27;20219;-64
2022/03/06 01:02:34;;;;;;;9.25;8.25;;;5.40;76.30;;;;;;5114696;28;20219;-65
2022/03/06 01:05:01;;;;;;;10.95;9.95;;;5.40;76.50;;;;;;5103571;28;20223;-65
2022/03/06 01:07:27;;;;;;;9.65;8.75;;;5.40;76.70;;;;;;5101848;28;20216;-65
2022/03/06 01:09:54;;;;;;;9.20;8.40;;;5.40;76.80;;;;;;5115599;28;20687;-65
2022/03/06 01:12:21;;;;;;;13.98;11.55;;;5.40;76.70;;;;;;5102295;28;20227;-64
2022/03/06 01:14:51;;;;;;;11.10;9.98;;;5.40;76.70;;;;;;5115395;27;20218;-64
2022/03/06 01:17:18;;;;;;;11.18;10.05;;;5.40;76.50;;;;;;5115773;27;20222;-64
2022/03/06 01:19:47;;;;;;;9.75;8.77;;;5.30;76.30;;;;;;5109676;28;20224;-64
2022/03/06 01:22:14;;;;;;;10.85;9.80;;;5.30;76.20;;;;;;5108222;28;20247;-64
2022/03/06 01:24:41;;;;;;;10.25;9.27;;;5.30;76.00;;;;;;5114858;27;20223;-65
2022/03/06 01:27:08;;;;;;;12.07;10.50;;;5.40;75.70;;;;;;5102283;28;20219;-65
2022/03/06 01:29:35;;;;;;;10.18;9.18;;;5.30;76.00;;;;;;5108402;28;20223;-65
2022/03/06 01:32:02;;;;;;;9.65;8.65;;;5.30;75.90;;;;;;5108525;28;20240;-64
2022/03/06 01:34:28;;;;;;;11.30;8.35;;;5.30;75.80;;;;;;5097036;28;20220;-65
2022/03/06 01:36:56;;;;;;;9.38;8.45;;;5.20;75.60;;;;;;5101831;27;20219;-65
2022/03/06 01:39:23;;;;;;;11.70;9.50;;;5.20;75.50;;;;;;5115378;28;20226;-64
2022/03/06 01:41:50;;;;;;;12.52;8.70;;;5.20;75.90;;;;;;5101299;28;20228;-65
2022/03/06 01:44:17;;;;;;;9.95;8.95;;;5.20;76.00;;;;;;5111540;28;20549;-65
2022/03/06 01:46:46;;;;;;;11.18;10.13;;;5.20;76.00;;;;;;5101367;28;20388;-65
2022/03/06 01:49:14;;;;;;;9.63;8.65;;;5.20;76.00;;;;;;5115068;27;20250;-65
2022/03/06 01:51:41;;;;;;;8.60;7.88;;;5.30;75.90;;;;;;5114497;27;20223;-65
2022/03/06 01:54:09;;;;;;;11.57;9.85;;;5.20;76.20;;;;;;5105792;28;20530;-64
2022/03/06 01:56:36;;;;;;;12.65;8.77;;;5.20;76.50;;;;;;5107795;28;20247;-65
2022/03/06 01:59:05;;;;;;;9.07;8.27;;;5.30;76.70;;;;;;5104613;28;20219;-65
2022/03/06 02:01:33;;;;;;;9.70;8.70;;;5.30;76.90;;;;;;5100884;27;20243;-65
2022/03/06 02:04:00;;;;;;;9.10;8.30;;;5.30;76.80;;;;;;5110425;28;20238;-65
2022/03/06 02:06:27;;;;;;;10.25;9.38;;;5.20;76.70;;;;;;5110505;27;20231;-65
2022/03/06 02:08:55;;;;;;;8.77;7.80;;;5.30;76.50;;;;;;5105635;28;20276;-64
2022/03/06 02:11:25;;;;;;;9.07;8.30;;;5.30;76.60;;;;;;5101148;28;20237;-65
2022/03/06 02:13:55;;;;;;;8.68;7.78;;;5.30;76.40;;;;;;5108224;27;20220;-65
2022/03/06 02:16:22;;;;;;;9.25;7.18;;;5.30;76.50;;;;;;5114623;27;20575;-64
2022/03/06 02:18:51;;;;;;;9.60;8.10;;;5.30;76.60;;;;;;5114209;27;20230;-64
2022/03/06 02:21:20;;;;;;;9.57;8.10;;;5.20;76.60;;;;;;5110206;28;20232;-64
2022/03/06 02:23:49;;;;;;;8.65;7.82;;;5.20;76.50;;;;;;5104958;28;20230;-64
2022/03/06 02:26:16;;;;;;;12.75;8.02;;;5.20;76.50;;;;;;5109176;28;20730;-64
2022/03/06 02:28:43;;;;;;;8.75;6.78;;;5.20;76.60;;;;;;5105902;28;20223;-64
2022/03/06 02:31:12;;;;;;;8.07;7.28;;;5.20;76.70;;;;;;5100394;28;20215;-64
2022/03/06 02:33:39;;;;;;;8.00;7.20;;;5.20;76.90;;;;;;5101179;28;20228;-64
2022/03/06 02:36:06;;;;;;;8.00;7.30;;;5.10;76.70;;;;;;5101655;28;20677;-64
2022/03/06 02:38:35;;;;;;;10.95;7.40;;;5.10;76.50;;;;;;5113730;27;20227;-64
2022/03/06 02:41:01;;;;;;;7.03;6.28;;;5.10;76.40;;;;;;5100985;28;20230;-64
2022/03/06 02:43:28;;;;;;;7.15;6.38;;;5.10;76.40;;;;;;5113753;27;20420;-64
2022/03/06 02:45:58;;;;;;;10.15;8.27;;;5.20;76.50;;;;;;5113493;28;20218;-64
2022/03/06 02:48:25;;;;;;;10.27;8.23;;;5.20;76.30;;;;;;5113019;28;20250;-64
2022/03/06 02:50:53;;;;;;;8.30;6.65;;;5.10;76.30;;;;;;5101214;28;20230;-64
2022/03/06 02:53:23;;;;;;;8.73;7.75;;;5.20;76.30;;;;;;5100223;28;20219;-64
2022/03/06 02:55:51;;;;;;;8.18;7.28;;;5.10;75.80;;;;;;5104285;28;20230;-65
2022/03/06 02:58:18;;;;;;;9.80;7.10;;;5.20;75.80;;;;;;5107176;28;20228;-64
2022/03/06 03:00:45;;;;;;;11.10;7.38;;;5.10;75.70;;;;;;5102510;28;20227;-64
2022/03/06 03:03:12;;;;;;;9.98;7.85;;;5.20;75.50;;;;;;5099721;28;20223;-64
2022/03/06 03:05:39;;;;;;;8.43;7.25;;;5.10;75.30;;;;;;5113488;27;20575;-64
2022/03/06 03:08:06;;;;;;;8.02;7.05;;;5.00;75.20;;;;;;5109686;28;20693;-64
2022/03/06 03:10:33;;;;;;;9.07;7.43;;;5.00;75.30;;;;;;5104345;28;20254;-64
2022/03/06 03:13:01;;;;;;;10.85;9.00;;;5.00;75.40;;;;;;5099459;27;20994;-64
2022/03/06 03:15:28;;;;;;;9.32;6.63;;;5.00;75.40;;;;;;5113611;27;20230;-64
2022/03/06 03:17:55;;;;;;;7.78;6.43;;;5.00;75.40;;;;;;5112649;27;20250;-65
2022/03/06 03:20:21;;;;;;;6.90;6.07;;;5.00;75.50;;;;;;5113546;28;20493;-65
2022/03/06 03:22:48;;;;;;;6.18;5.40;;;5.00;75.70;;;;;;5103777;28;20238;-65
2022/03/06 03:25:15;;;;;;;10.52;6.05;;;5.00;75.50;;;;;;5103333;27;20227;-65
2022/03/06 03:27:42;;;;;;;10.85;6.20;;;4.90;74.80;;;;;;5109127;28;20219;-65
2022/03/06 03:30:12;;;;;;;6.80;6.13;;;4.80;74.90;;;;;;5105702;28;20231;-66
2022/03/06 03:32:40;;;;;;;6.35;5.00;;;4.80;75.00;;;;;;5108220;28;20227;-65
2022/03/06 03:35:07;;;;;;;10.40;6.70;;;4.80;75.00;;;;;;5102334;27;20235;-65
2022/03/06 03:37:35;;;;;;;5.65;5.15;;;4.80;74.70;;;;;;5113148;28;20223;-65
2022/03/06 03:40:02;;;;;;;8.02;4.63;;;4.80;74.70;;;;;;5100501;28;20234;-65
2022/03/06 03:42:28;;;;;;;6.50;5.88;;;4.70;74.80;;;;;;5108766;28;20250;-64
2022/03/06 03:44:55;;;;;;;8.20;5.88;;;4.70;75.00;;;;;;5112724;27;20223;-64
2022/03/06 03:47:23;;;;;;;7.75;6.20;;;4.70;75.30;;;;;;5106568;28;20231;-65
2022/03/06 03:49:50;;;;;;;7.45;5.72;;;4.80;75.20;;;;;;5105766;28;20223;-65
2022/03/06 03:52:17;;;;;;;7.18;5.72;;;4.90;75.30;;;;;;5099754;28;20223;-65
2022/03/06 03:54:44;;;;;;;10.52;5.80;;;4.90;75.20;;;;;;5112038;28;20233;-65
2022/03/06 03:57:13;;;;;;;7.68;5.63;;;4.90;75.00;;;;;;5100316;28;20299;-65
2022/03/06 03:59:40;;;;;;;6.32;5.28;;;4.90;75.00;;;;;;5098913;28;20682;-65
2022/03/06 04:02:07;;;;;;;6.40;4.75;;;4.90;75.00;;;;;;5105037;28;20596;-65
2022/03/06 04:04:40;;;;;;;6.15;5.25;;;4.90;74.80;;;;;;5107159;27;20352;-65
2022/03/06 04:07:08;;;;;;;5.90;5.35;;;5.00;74.80;;;;;;5112697;28;20219;-65
2022/03/06 04:09:34;;;;;;;5.20;4.70;;;5.00;74.70;;;;;;5099081;28;20240;-64
2022/03/06 04:12:01;;;;;;;7.38;5.60;;;5.00;74.70;;;;;;5102738;28;20232;-65
2022/03/06 04:14:28;;;;;;;6.82;6.10;;;5.00;74.70;;;;;;5113251;27;20223;-64
2022/03/06 04:16:55;;;;;;;7.18;6.47;;;5.00;74.70;;;;;;5116698;27;20222;-65
2022/03/06 04:19:22;;;;;;;6.80;6.13;;;5.00;74.50;;;;;;5111725;28;20227;-65
2022/03/06 04:21:50;;;;;;;7.28;6.20;;;5.00;74.20;;;;;;5108071;28;20230;-64
2022/03/06 04:24:17;;;;;;;7.07;5.90;;;4.90;74.20;;;;;;5111268;27;20684;-65
2022/03/06 04:26:44;;;;;;;7.15;5.55;;;4.90;74.10;;;;;;5116925;28;20234;-65
2022/03/06 04:29:11;;;;;;;8.07;6.70;;;5.00;74.10;;;;;;5102728;28;20219;-65
2022/03/06 04:31:38;;;;;;;6.88;6.07;;;5.00;74.00;;;;;;5116620;27;20231;-64
2022/03/06 04:34:04;;;;;;;6.45;5.85;;;5.00;73.30;;;;;;5112907;27;20220;-65
2022/03/06 04:36:31;;;;;;;6.47;5.85;;;4.90;72.60;;;;;;5106637;28;20219;-65
2022/03/06 04:38:59;;;;;;;7.53;6.68;;;5.00;72.30;;;;;;5112288;28;20224;-65
2022/03/06 04:41:26;;;;;;;7.43;6.32;;;5.00;72.30;;;;;;5107105;28;20227;-65
2022/03/06 04:43:53;;;;;;;8.07;5.53;;;5.00;72.20;;;;;;5112147;27;20238;-65
2022/03/06 04:46:23;;;;;;;8.35;6.85;;;5.00;72.00;;;;;;5116555;28;20222;-65
2022/03/06 04:48:49;;;;;;;11.40;6.82;;;5.00;71.80;;;;;;5108180;27;20223;-65
2022/03/06 04:51:17;;;;;;;9.02;6.25;;;5.00;71.30;;;;;;5116394;28;20705;-65
2022/03/06 04:53:44;;;;;;;7.15;6.45;;;5.00;71.00;;;;;;5102216;28;20219;-65
2022/03/06 04:56:12;;;;;;;8.63;7.07;;;5.00;70.90;;;;;;5103690;28;20235;-65
2022/03/06 04:58:39;;;;;;;7.13;6.45;;;5.00;70.60;;;;;;5109982;28;20566;-65
2022/03/06 05:01:06;;;;;;;10.02;7.65;;;5.00;70.60;;;;;;5115674;27;20237;-64
2022/03/06 05:03:33;;;;;;;9.02;8.05;;;5.00;70.80;;;;;;5115723;28;20227;-65
2022/03/06 05:06:00;;;;;;;11.30;10.07;;;5.00;70.80;;;;;;5115743;28;20241;-65
2022/03/06 05:08:27;;;;;;;9.90;8.55;;;4.90;70.70;;;;;;5102438;27;20223;-64
2022/03/06 05:10:55;;;;;;;10.07;7.22;;;5.00;70.80;;;;;;5105228;28;20238;-65
2022/03/06 05:13:24;;;;;;;11.25;8.15;;;5.00;70.20;;;;;;5111307;28;20227;-65
2022/03/06 05:15:50;;;;;;;12.63;9.45;;;5.00;70.20;;;;;;5115150;27;20571;-65
2022/03/06 05:18:17;;;;;;;9.05;7.65;;;5.10;70.20;;;;;;5115849;28;20230;-64
2022/03/06 05:20:44;;;;;;;7.57;6.85;;;5.10;69.70;;;;;;5115889;27;20309;-64
2022/03/06 05:23:11;;;;;;;8.60;7.00;;;5.10;69.20;;;;;;5101279;28;20272;-65
2022/03/06 05:25:38;;;;;;;9.70;6.70;;;5.10;68.80;;;;;;5114817;27;20234;-65
2022/03/06 05:28:05;;;;;;;8.82;6.63;;;5.00;68.30;;;;;;5109652;27;20223;-64
2022/03/06 05:30:33;;;;;;;6.22;5.63;;;5.00;67.40;;;;;;5107813;28;20238;-64
2022/03/06 05:33:00;;;;;;;10.18;6.93;;;5.00;67.00;;;;;;5101597;28;20230;-64
2022/03/06 05:35:27;;;;;;;8.60;7.00;;;5.00;66.90;;;;;;5102472;28;20224;-64
2022/03/06 05:37:54;;;;;;;8.15;6.25;;;5.00;67.00;;;;;;5114792;27;20231;-65
2022/03/06 05:40:21;;;;;;;8.07;7.18;;;5.00;67.10;;;;;;5101679;27;20239;-64
2022/03/06 05:42:49;;;;;;;6.82;6.13;;;5.00;67.30;;;;;;5113783;28;20238;-65
2022/03/06 05:45:16;;;;;;;8.13;6.93;;;5.00;67.30;;;;;;5114718;27;20223;-65
2022/03/06 05:47:44;;;;;;;6.72;6.13;;;5.00;67.60;;;;;;5108103;27;20223;-65
2022/03/06 05:50:11;;;;;;;8.55;7.75;;;5.00;66.30;;;;;;5107805;28;20707;-65
2022/03/06 05:52:39;;;;;;;7.47;6.72;;;5.00;66.10;;;;;;5103016;28;20235;-64
2022/03/06 05:55:09;;;;;;;6.95;6.22;;;5.10;65.80;;;;;;5100909;28;20231;-65
2022/03/06 05:57:36;;;;;;;6.30;5.70;;;5.00;65.90;;;;;;5106451;27;20627;-65
2022/03/06 06:00:08;;;;;;;8.85;6.93;;;5.10;66.30;;;;;;5110135;27;20234;-65
2022/03/06 06:02:35;;;;;;;12.10;7.78;;;5.10;66.70;;;;;;5101434;28;20310;-65
2022/03/06 06:05:04;;;;;;;8.35;7.15;;;5.00;66.70;;;;;;5114035;28;20231;-65
2022/03/06 06:07:31;;;;;;;8.18;7.05;;;5.00;67.10;;;;;;5107395;28;20228;-65
2022/03/06 06:09:58;;;;;;;8.60;7.80;;;5.00;67.20;;;;;;5107333;28;20218;-65
2022/03/06 06:12:25;;;;;;;8.40;7.55;;;5.00;67.30;;;;;;5102421;28;20313;-64
2022/03/06 06:14:52;;;;;;;10.95;7.97;;;4.90;67.20;;;;;;5114491;27;20215;-65
2022/03/06 06:17:19;;;;;;;8.20;7.50;;;5.00;67.30;;;;;;5114187;28;20570;-65
2022/03/06 06:19:45;;;;;;;8.88;8.07;;;5.00;67.10;;;;;;5114642;28;20234;-64
2022/03/06 06:22:14;;;;;;;8.20;7.50;;;5.00;67.10;;;;;;5105138;28;20228;-64
2022/03/06 06:24:40;;;;;;;8.00;7.30;;;5.10;67.30;;;;;;5108510;28;20228;-65
2022/03/06 06:27:07;;;;;;;8.95;8.10;;;5.00;67.50;;;;;;5114198;28;20238;-64
2022/03/06 06:29:34;;;;;;;8.98;7.80;;;5.10;67.70;;;;;;5100876;28;20223;-64
2022/03/06 06:32:01;;;;;;;8.50;7.80;;;5.10;67.60;;;;;;5103918;28;20677;-64
2022/03/06 06:34:28;;;;;;;11.23;8.15;;;5.10;67.60;;;;;;5109927;28;20223;-65
2022/03/06 06:36:57;;;;;;;8.75;7.90;;;5.00;67.40;;;;;;5114507;28;20222;-65
2022/03/06 06:39:26;;;;;;;9.07;8.23;;;5.00;67.50;;;;;;5099535;28;20219;-64
2022/03/06 06:41:53;;;;;;;9.40;8.48;;;5.10;67.70;;;;;;5102667;27;20285;-64
2022/03/06 06:44:20;;;;;;;9.35;8.40;;;5.10;68.00;;;;;;5111927;27;20235;-64
2022/03/06 06:46:47;;;;;;;7.97;7.30;;;5.10;67.70;;;;;;5114338;28;20215;-64
2022/03/06 06:49:17;;;;;;;8.85;8.15;;;5.20;67.70;;;;;;5100261;28;20242;-64
2022/03/06 06:51:44;;;;;;;10.45;9.00;;;5.20;67.30;;;;;;5101260;27;20227;-64
2022/03/06 06:54:13;;;;;;;10.85;9.52;;;5.20;67.30;;;;;;5106885;28;20253;-64
2022/03/06 06:56:41;;;;;;;10.30;9.07;;;5.20;67.10;;;;;;5106942;28;20683;-64
2022/03/06 06:59:08;;;;;;;9.73;8.88;;;5.10;66.60;;;;;;5099573;27;20218;-65
2022/03/06 07:01:35;;;;;;;8.15;7.45;;;5.10;66.80;;;;;;5113825;27;20219;-64
2022/03/06 07:04:01;;;;;;;9.75;8.85;;;5.10;67.00;;;;;;5113007;28;20221;-65
2022/03/06 07:06:28;;;;;;;9.40;8.50;;;5.20;67.40;;;;;;5113596;28;20223;-64
2022/03/06 07:08:55;;;;;;;8.75;7.88;;;5.20;67.40;;;;;;5099681;28;20215;-65
2022/03/06 07:11:22;;;;;;;9.10;8.20;;;5.20;67.30;;;;;;5100223;28;20242;-65
2022/03/06 07:13:50;;;;;;;7.50;6.90;;;5.20;67.50;;;;;;5112653;28;20222;-65
2022/03/06 07:16:17;;;;;;;9.50;8.60;;;5.30;67.40;;;;;;5113031;27;20242;-65
2022/03/06 07:18:44;;;;;;;9.55;8.75;;;5.20;67.30;;;;;;5113442;27;20225;-65
2022/03/06 07:21:11;;;;;;;8.95;8.05;;;5.20;67.40;;;;;;5112105;28;20230;-65
2022/03/06 07:23:38;;;;;;;10.77;9.68;;;5.30;67.50;;;;;;5103476;28;20549;-65
2022/03/06 07:26:05;;;;;;;11.57;10.20;;;5.30;67.30;;;;;;5112963;27;20573;-64
2022/03/06 07:28:31;;;;;;;10.77;9.68;;;5.30;67.40;;;;;;5104919;28;20224;-65
2022/03/06 07:31:00;;;;;;;9.90;8.98;;;5.30;67.20;;;;;;5105477;28;20716;-64
2022/03/06 07:33:26;;;;;;;10.00;9.07;;;5.30;67.20;;;;;;5107273;27;20223;-64
2022/03/06 07:35:53;;;;;;;9.30;8.40;;;5.20;67.00;;;;;;5112341;27;20222;-65
2022/03/06 07:38:20;;;;;;;8.75;8.05;;;5.20;67.70;;;;;;5104170;28;20242;-64
2022/03/06 07:40:47;;;;;;;10.15;9.15;;;5.20;68.10;;;;;;5106363;28;20219;-64
2022/03/06 07:43:14;;;;;;;8.85;8.00;;;5.20;68.20;;;;;;5100217;28;20715;-65
2022/03/06 07:45:41;;;;;;;9.60;8.55;;;5.20;68.30;;;;;;5110507;28;20238;-63
2022/03/06 07:48:09;;;;;;;9.02;8.15;;;5.20;68.50;;;;;;5099589;28;20218;-65
2022/03/06 07:50:36;;;;;;;9.48;8.73;;;5.30;68.70;;;;;;5098536;28;20235;-64
2022/03/06 07:53:03;;;;;;;9.02;8.32;;;5.30;68.50;;;;;;5112052;27;20234;-64
2022/03/06 07:55:29;;;;;;;10.77;9.85;;;5.20;68.40;;;;;;5111707;28;20211;-65
2022/03/06 07:57:56;;;;;;;10.52;9.73;;;5.20;69.50;;;;;;5102146;28;20234;-65
2022/03/06 08:00:23;;;;;;;9.10;8.40;;;5.20;68.90;;;;;;5105817;28;20780;-64
2022/03/06 08:02:50;;;;;;;10.00;9.20;;;5.20;68.90;;;;;;5103668;28;20220;-66
2022/03/06 08:05:18;;;;;;;10.65;9.65;;;5.20;68.80;;;;;;5107601;28;20574;-64
2022/03/06 08:07:45;;;;;;;8.63;7.93;;;5.30;68.70;;;;;;5104426;28;20223;-65
2022/03/06 08:10:12;;;;;;;9.43;8.43;;;5.30;68.60;;;;;;5098694;28;20231;-63
2022/03/06 08:12:40;;;;;;;9.50;8.60;;;5.30;68.90;;;;;;5112563;27;20226;-64
2022/03/06 08:15:09;;;;;;;9.63;8.82;;;5.30;69.10;;;;;;5112410;27;20230;-64
2022/03/06 08:17:37;;;;;;;11.48;10.40;;;5.30;69.70;;;;;;5112899;28;20219;-64
2022/03/06 08:20:04;;;;;;;15.70;11.85;;;5.30;70.00;;;;;;5111463;27;20234;-64
2022/03/06 08:22:36;;;;;;;10.80;9.80;;;5.30;69.80;;;;;;5112541;28;20288;-64
2022/03/06 08:25:03;;;;;;;10.10;9.20;;;5.30;70.10;;;;;;5102139;27;20227;-64
2022/03/06 08:27:32;;;;;;;11.50;10.38;;;5.30;70.20;;;;;;5111769;28;20223;-64
2022/03/06 08:29:59;;;;;;;8.52;7.82;;;5.30;70.90;;;;;;5099997;28;20239;-64
2022/03/06 08:32:26;;;;;;;9.27;8.45;;;5.20;70.70;;;;;;5098788;28;20235;-63
2022/03/06 08:34:53;;;;;;;10.02;9.10;;;5.30;71.10;;;;;;5104446;28;20216;-64
2022/03/06 08:37:20;;;;;;;12.45;9.18;;;5.30;71.70;;;;;;5106911;28;20234;-63
2022/03/06 08:39:49;;;;;;;9.43;8.50;;;5.20;72.20;;;;;;5104389;28;20234;-65
2022/03/06 08:42:16;;;;;;;9.52;8.10;;;5.30;72.50;;;;;;5105948;28;20230;-64
2022/03/06 08:44:43;;;;;;;8.07;7.30;;;5.30;72.80;;;;;;5112748;27;20235;-64
2022/03/06 08:47:14;;;;;;;9.43;8.38;;;5.30;72.80;;;;;;5109279;28;20901;-64
2022/03/06 08:49:41;;;;;;;8.98;7.10;;;5.30;72.80;;;;;;5102493;28;20223;-63
2022/03/06 08:52:08;;;;;;;8.40;7.30;;;5.30;72.70;;;;;;5111919;28;20569;-64
2022/03/06 08:54:35;;;;;;;7.25;6.55;;;5.30;73.10;;;;;;5112151;27;20215;-63
2022/03/06 08:57:04;;;;;;;6.68;5.75;;;5.40;73.00;;;;;;5112607;28;20226;-64
2022/03/06 08:59:30;;;;;;;6.78;6.18;;;5.40;72.60;;;;;;5110290;27;20676;-64
2022/03/06 09:01:57;;;;;;;7.63;6.90;;;5.40;73.00;;;;;;5115944;28;20234;-64
2022/03/06 09:04:25;;;;;;;7.72;7.13;;;5.30;73.40;;;;;;5115652;27;20231;-64
2022/03/06 09:06:53;;;;;;;7.15;6.45;;;5.40;73.50;;;;;;5111670;27;20540;-64
2022/03/06 09:09:20;;;;;;;6.82;6.10;;;5.30;73.60;;;;;;5106653;28;20676;-64
2022/03/06 09:11:47;;;;;;;8.63;6.80;;;5.30;73.80;;;;;;5102377;28;20230;-63
2022/03/06 09:14:15;;;;;;;6.93;6.22;;;5.30;74.20;;;;;;5113061;27;20219;-63
2022/03/06 09:16:41;;;;;;;6.72;5.55;;;5.20;74.40;;;;;;5116063;28;20235;-63
2022/03/06 09:19:08;;;;;;;6.00;5.40;;;5.20;74.40;;;;;;5103703;28;20704;-63
2022/03/06 09:21:35;;;;;;;7.65;5.40;;;5.30;74.50;;;;;;5108705;28;20223;-63
2022/03/06 09:24:02;;;;;;;5.25;4.70;;;5.30;74.50;;;;;;5105935;28;20222;-64
2022/03/06 09:26:29;;;;;;;6.53;5.60;;;5.40;74.50;;;;;;5114524;28;20227;-65
2022/03/06 09:28:56;;;;;;;5.93;5.43;;;5.40;74.50;;;;;;5111798;27;20704;-64
2022/03/06 09:31:25;;;;;;;5.50;5.00;;;5.50;74.50;;;;;;5115086;28;20227;-63
2022/03/06 09:33:52;;;;;;;6.13;5.60;;;5.50;74.10;;;;;;5102411;28;20223;-63
2022/03/06 09:36:19;;;;;;;6.75;6.15;;;5.50;73.80;;;;;;5101106;28;20235;-64
2022/03/06 09:38:46;;;;;;;5.70;5.20;;;5.50;73.60;;;;;;5115504;28;20219;-63
2022/03/06 09:41:17;;;;;;;7.53;6.70;;;5.60;73.70;;;;;;5101817;28;20794;-63
2022/03/06 09:43:44;;;;;;;8.75;5.50;;;5.60;73.40;;;;;;5113735;27;20740;-64
2022/03/06 09:46:12;;;;;;;6.18;5.68;;;5.60;72.90;;;;;;5115382;27;20226;-63
2022/03/06 09:48:40;;;;;;;6.68;6.07;;;5.60;71.90;;;;;;5101522;28;20666;-64
2022/03/06 09:51:07;;;;;;;9.75;7.15;;;5.60;71.90;;;;;;5106602;27;20230;-64
2022/03/06 09:53:34;;;;;;;6.53;5.95;;;5.60;72.10;;;;;;5109893;27;20230;-63
2022/03/06 09:56:01;;;;;;;6.60;5.97;;;5.60;72.30;;;;;;5115257;28;20223;-65
2022/03/06 09:58:28;;;;;;;6.13;5.65;;;5.60;71.90;;;;;;5105340;28;20231;-64
2022/03/06 10:00:55;;;;;;;6.75;6.15;;;5.50;71.70;;;;;;5108399;27;20235;-64
2022/03/06 10:03:23;;;;;;;5.82;5.32;;;5.60;71.30;;;;;;5109761;27;20303;-65
2022/03/06 10:05:52;;;;;;;6.05;5.40;;;5.60;70.60;;;;;;5114222;27;20227;-63
2022/03/06 10:08:24;;;;;;;5.85;5.45;;;5.60;70.00;;;;;;5114303;27;20223;-63
2022/03/06 10:10:53;;;;;;;6.30;5.43;;;5.60;70.10;;;;;;5114344;27;20234;-64
2022/03/06 10:13:26;;;;;;;7.65;5.10;;;5.70;70.20;;;;;;5114953;27;20681;-64
2022/03/06 10:16:09;;;;;;;6.50;5.90;;;5.70;69.80;;;;;;5114402;27;20351;-63
2022/03/06 10:18:38;;;;;;;6.22;5.63;;;5.80;70.20;;;;;;5114438;27;20227;-63
2022/03/06 10:21:14;;;;;;;6.07;5.65;;;5.80;69.70;;;;;;5115072;27;20234;-63
2022/03/06 10:23:42;;;;;;;5.93;5.43;;;5.70;68.50;;;;;;5114289;27;20226;-64
2022/03/06 10:26:11;;;;;;;5.47;5.00;;;5.80;68.20;;;;;;5114829;27;20560;-64
2022/03/06 10:28:45;;;;;;;6.97;5.00;;;5.80;68.10;;;;;;5114424;27;20226;-63
2022/03/06 10:31:12;;;;;;;6.07;5.68;;;5.80;68.00;;;;;;5114713;27;20227;-63
2022/03/06 10:33:39;;;;;;;6.20;5.32;;;5.80;67.70;;;;;;5114317;27;20245;-63
2022/03/06 10:36:09;;;;;;;6.40;5.80;;;5.80;66.90;;;;;;5114508;27;20215;-63
2022/03/06 10:38:37;;;;;;;6.80;6.30;;;5.90;66.70;;;;;;5114106;27;20587;-63
2022/03/06 10:41:13;;;;;;;7.57;6.13;;;5.90;65.90;;;;;;5114306;27;20231;-64
2022/03/06 10:43:41;;;;;;;4.93;4.55;;;5.90;66.50;;;;;;5114070;27;20241;-66
2022/03/06 10:46:10;;;;;;;6.10;5.60;;;5.90;66.50;;;;;;5114293;27;20239;-64
2022/03/06 10:48:38;;;;;;;6.13;5.63;;;6.00;66.30;;;;;;5113948;27;20678;-63
2022/03/06 10:51:06;;;;;;;6.35;5.85;;;6.00;66.10;;;;;;5114114;27;20681;-63
2022/03/06 10:53:33;;;;;;;6.40;5.90;;;6.00;65.70;;;;;;5113840;27;20227;-63
2022/03/06 10:56:09;;;;;;;6.40;5.90;;;6.00;65.30;;;;;;5113922;27;20218;-64
2022/03/06 10:58:42;;;;;;;6.60;6.00;;;6.00;64.40;;;;;;5113750;27;20226;-64
2022/03/06 11:01:09;;;;;;;5.10;4.80;;;6.00;63.80;;;;;;5113860;27;20223;-64
2022/03/06 11:03:38;;;;;;;6.97;6.22;;;6.00;63.90;;;;;;5113589;27;20246;-64
2022/03/06 11:06:07;;;;;;;6.80;6.30;;;6.00;63.10;;;;;;5121058;27;20222;-64
2022/03/06 11:08:36;;;;;;;6.90;6.30;;;6.00;62.60;;;;;;5113230;28;20226;-64
2022/03/06 11:11:05;;;;;;;6.22;5.65;;;6.10;62.70;;;;;;5100070;28;20223;-64
2022/03/06 11:13:34;;;;;;;6.30;5.80;;;6.00;61.90;;;;;;5099539;28;20219;-64
2022/03/06 11:16:02;;;;;;;7.20;6.50;;;6.00;62.00;;;;;;5106151;27;20666;-64
2022/03/06 11:18:30;;;;;;;5.80;5.20;;;6.10;62.30;;;;;;5106960;28;20227;-64
2022/03/06 11:20:59;;;;;;;5.72;5.25;;;6.10;62.40;;;;;;5100479;28;20529;-64
2022/03/06 11:23:32;;;;;;;6.47;5.93;;;6.10;62.10;;;;;;5098934;28;20238;-63
2022/03/06 11:26:14;;;;;;;6.00;5.60;;;6.10;59.80;;;;;;5104053;28;20769;-63
2022/03/06 11:28:58;;;;;;;6.05;5.70;;;6.10;59.90;;;;;;5106582;28;20234;-64
2022/03/06 11:31:33;;;;;;;6.53;6.00;;;6.10;59.40;;;;;;5106730;28;20231;-64
2022/03/06 11:34:05;;;;;;;7.72;6.93;;;6.10;59.50;;;;;;5100586;28;20214;-64
2022/03/06 11:36:32;;;;;;;6.32;5.82;;;6.20;59.30;;;;;;5099382;28;20227;-64
2022/03/06 11:38:59;;;;;;;5.85;5.45;;;6.20;59.00;;;;;;5104176;28;20215;-63
2022/03/06 11:41:27;;;;;;;5.45;4.82;;;6.20;59.40;;;;;;5106381;28;20226;-64
2022/03/06 11:43:55;;;;;;;6.80;6.20;;;6.20;59.40;;;;;;5101297;28;20238;-64
2022/03/06 11:46:23;;;;;;;6.00;5.63;;;6.30;59.30;;;;;;5099466;28;20251;-64
2022/03/06 11:49:11;;;;;;;7.43;6.82;;;6.30;59.10;;;;;;5103165;28;20219;-63
2022/03/06 11:51:47;;;;;;;6.28;5.85;;;6.30;58.40;;;;;;5105714;28;20302;-64
2022/03/06 11:54:17;;;;;;;7.63;6.95;;;6.30;58.30;;;;;;5106077;28;20230;-63
2022/03/06 11:56:57;;;;;;;9.68;8.32;;;6.30;57.90;;;;;;5100061;28;20692;-63
2022/03/06 11:59:38;;;;;;;7.60;6.90;;;6.30;58.00;;;;;;5099560;28;20680;-64
2022/03/06 12:02:08;;;;;;;5.57;5.07;;;6.40;58.40;;;;;;5110427;27;20247;-64
2022/03/06 12:04:39;;;;;;;5.75;5.40;;;6.40;58.10;;;;;;5112562;28;20250;-64
2022/03/06 12:07:09;;;;;;;5.32;4.80;;;6.40;57.80;;;;;;5112502;28;20219;-64
2022/03/06 12:09:38;;;;;;;5.38;4.55;;;6.40;57.70;;;;;;5104912;28;20223;-63
2022/03/06 12:12:08;;;;;;;5.90;5.10;;;6.50;58.20;;;;;;5105898;28;20231;-63
2022/03/06 12:14:37;;;;;;;4.90;4.57;;;6.50;58.30;;;;;;5101466;28;20265;-63
2022/03/06 12:17:21;;;;;;;4.20;3.95;;;6.50;58.20;;;;;;5098667;28;20535;-63
2022/03/06 12:20:26;;;;;;;4.38;3.92;;;6.60;58.30;;;;;;5100335;28;20566;-63
2022/03/06 12:23:06;;;;;;;3.58;3.28;;;6.60;58.10;;;;;;5102566;28;20230;-64
2022/03/06 12:25:35;;;;;;;4.57;4.25;;;6.50;58.30;;;;;;5107208;28;20309;-64
2022/03/06 12:28:35;;;;;;;4.20;3.90;;;6.50;58.40;;;;;;5104694;28;20566;-64
2022/03/06 12:31:31;;;;;;;5.05;4.55;;;6.50;58.60;;;;;;5102489;28;20235;-64
2022/03/06 12:33:58;;;;;;;3.15;2.90;;;6.60;58.60;;;;;;5101506;27;20226;-63
2022/03/06 12:36:26;;;;;;;3.40;3.10;;;6.60;58.70;;;;;;5115585;28;20235;-64
2022/03/06 12:39:04;;;;;;;5.32;3.60;;;6.60;58.50;;;;;;5102029;28;20234;-64
2022/03/06 12:41:34;;;;;;;5.68;2.90;;;6.60;58.60;;;;;;5112673;28;20246;-64
2022/03/06 12:44:05;;;;;;;3.70;3.40;;;6.50;59.00;;;;;;5105867;27;20607;-64
2022/03/06 12:46:33;;;;;;;3.55;2.83;;;6.50;59.50;;;;;;5109913;28;20559;-64
2022/03/06 12:49:00;;;;;;;3.08;2.83;;;6.50;59.50;;;;;;5106650;28;20568;-64
2022/03/06 12:51:37;;;;;;;2.63;2.42;;;6.50;59.60;;;;;;5116146;27;20257;-64
2022/03/06 12:54:05;;;;;;;3.25;2.95;;;6.50;59.90;;;;;;5116024;28;20235;-63
2022/03/06 12:56:36;;;;;;;2.90;2.40;;;6.50;59.70;;;;;;5116575;28;20255;-64
2022/03/06 12:59:06;;;;;;;3.17;2.58;;;6.50;60.00;;;;;;5115754;27;20223;-64
2022/03/06 13:01:37;;;;;;;2.92;2.72;;;6.50;59.80;;;;;;5116262;28;20570;-64